events-overview

Kinetic Sprint

 

Relays

Lake Anna State Park - Spotsylvania, VA 5/15/2011 09:00AM

** Results are for the private use of participants and are the Intellectual Property of Set Up Events. Unauthorized use of these results is prohibited.

Place T Bib Team Rank SWIM Rank T1 Rank BIKE Rank T2 Rank RUN PENALTY TIME DQ
1X716Z 3 IMAZ 2011 STOOGEZ400:14:13500:01:30100:49:48700:00:43300:24:02 01:30:14 
2X708THA DAVIS FAM2100:21:19200:01:26500:55:16100:00:32100:21:43 01:40:16 
3X711TRI UNIFY - TEAM B800:16:36300:01:28200:50:05800:00:441800:31:46 01:40:37 
4X692FIRE-BREATHING PENGUINS200:12:292000:02:11900:59:131600:00:51900:26:05 01:40:48 
5X693GOES TO ELEVEN1300:17:49100:01:24300:51:441000:00:451700:31:16 01:42:57 
6X704TEAM MIKE LITTELL1600:19:18600:01:30800:58:451700:00:52800:24:52 01:45:15 
7X717ZESTY Z'S DOING IT FOR FU300:13:30800:01:311001:00:05400:00:411400:30:12 01:45:56 
8X683THE ATHLETICS2400:24:221200:01:38600:57:321900:00:54400:24:20 01:48:44 
9X707TEAM Z SPRINT TRIO1400:18:181000:01:351301:04:10900:00:45500:24:24 01:49:10 
10X691CORRAN-OLIVERSEN900:16:361100:01:381401:06:03300:00:39600:24:45 01:49:40 
11X696IMPACTS AND ADAPTATION1000:16:49400:01:29700:58:08600:00:432300:37:42 01:54:50 
12X690CAMBRIDGE TEAM 42300:22:29700:01:301101:00:14200:00:332100:32:50 01:57:35 
13X689CAMBRIDGE TEAM 12200:21:391700:01:591201:03:111200:00:471500:30:18 01:57:53 
14X703TEAM LAVA600:15:181600:01:491701:09:292000:01:001900:32:40 02:00:15 
15X694H20 FOR LIFE1200:17:212500:03:381601:07:461100:00:461600:30:53 02:00:22 
16X700MONKEYS CRY 2100:11:121500:01:492101:19:56500:00:422000:32:43 02:06:21 
17X698MIND MUSCLE 2.01800:19:56900:01:352501:24:441400:00:48200:22:36 02:09:37 
18X706TEAM O'MARA500:14:362300:02:531501:06:032200:01:032400:45:18 02:09:50 
19X712TRI UNIFY -TEAM A700:15:421300:01:412601:26:392300:01:09700:24:52 02:10:01 
20X688BEER RUN1500:19:182200:02:211901:19:271300:00:471000:28:26 02:10:17 
21X699MINDMUSCLE GUNNERS!1700:19:381400:01:492001:19:421800:00:531300:29:12 02:11:12 
22X705TEAM MORGAN1900:20:261900:02:082401:24:032400:01:491100:28:29 02:16:53 
23X695HIGHER ACHIEVEMENT DIVAS1100:17:132600:12:50400:53:032600:02:452600:51:40 02:17:30 
24X217CS TEAM 52500:31:542400:03:141801:15:222100:01:011200:28:31 02:20:00 
25X714WE'RE NOT 'TRI'-ING2000:20:312100:02:152301:22:472500:02:322200:33:55 02:21:59 
26X697MAYA'S TRI GIRLS2600:36:081800:02:072201:20:241500:00:512500:47:30 02:46:59 

** Results are for the private use of participants and are the Intellectual Property of Set Up Events. Unauthorized use of these results is prohibited.